Paganini — V2CL8 — position and weather

sailwx.info

Track history (hours):
 
Tides and Currents Weather Stations Pressure Air Temp Water Temp Dewpoint Dewpoint Depression Visibility Wind Speed Wind Dir Waves Ship Positions

Paganini

Last reported at 2017-Jun-22 12:50 UTC. Time now 2017-Jun-23 11:48 UTC.
Position N 56°50' E 010°56'.

Length 90 m; draft 5.8 m.

Type: Cargo ship. MMSI: 305040000.

Date/timePositionNaut miles runAvg speedWind from/ knotsBaromVisibWave heightAir tempDewpointWater temp
2017-Jun-22 12:50N 56°50' E 010°56'29 8.3
2017-Jun-22 09:22N 57°18' E 010°42'3 8.1
2017-Jun-22 08:56N 57°21' E 010°42'4 8.4
2017-Jun-22 08:30N 57°25' E 010°43'4 8.1
2017-Jun-22 07:58N 57°29' E 010°43'4 7.8
2017-Jun-22 07:30N 57°33' E 010°42'4 7.8
2017-Jun-22 07:00N 57°37' E 010°42'4 7.8
2017-Jun-22 06:30N 57°41' E 010°41'2 3.8
2017-Jun-22 06:00N 57°43' E 010°41'0 0.0
2017-Jun-22 05:30N 57°43' E 010°41'0 0.0
2017-Jun-22 04:57N 57°43' E 010°41'2 4.4
2017-Jun-22 04:30N 57°44' E 010°44'4 8.1
2017-Jun-22 04:00N 57°48' E 010°45'2 5.0
2017-Jun-22 03:30N 57°50' E 010°45'3 6.4
2017-Jun-22 03:00N 57°53' E 010°45'3 6.8
2017-Jun-22 02:30N 57°57' E 010°44'3 7.0
2017-Jun-22 02:00N 58°00' E 010°44'4 7.3
2017-Jun-22 01:30N 58°04' E 010°43'3 6.6
2017-Jun-22 01:00N 58°07' E 010°43'3 6.8
2017-Jun-22 00:30N 58°10' E 010°44'3 6.9
2017-Jun-22 00:00N 58°14' E 010°44'3 6.9
2017-Jun-21 23:30N 58°17' E 010°43'4 7.1
2017-Jun-21 23:01N 58°21' E 010°43'3 6.8
2017-Jun-21 22:30N 58°24' E 010°43'3 6.9
2017-Jun-21 22:00N 58°28' E 010°42'4 7.0
2017-Jun-21 21:30N 58°31' E 010°42'4 7.2
2017-Jun-21 21:00N 58°35' E 010°42'4 7.3
2017-Jun-21 20:30N 58°39' E 010°41'4 7.2
2017-Jun-21 20:00N 58°42' E 010°41'3 6.8
2017-Jun-21 19:30N 58°45' E 010°41'4 7.1
2017-Jun-21 19:00N 58°49' E 010°41'4 7.5
2017-Jun-21 18:30N 58°53' E 010°40'4 8.4
2017-Jun-21 18:00N 58°57' E 010°41'4 8.5
2017-Jun-21 17:30N 59°01' E 010°44'4 7.2
2017-Jun-21 17:00N 59°01' E 010°51'4 8.3
2017-Jun-21 16:30N 58°60' E 010°59'4 8.0
2017-Jun-21 16:00N 59°00' E 011°06'510.2
2017-Jun-21 15:30N 59°05' E 011°11'5 9.6
2017-Jun-21 15:00N 59°07' E 011°20'5 9.6
2017-Jun-21 14:29N 59°03' E 011°25'2 1.3
2017-Jun-21 13:14N 59°01' E 011°27'0 0.0
2017-Jun-21 12:56N 59°01' E 011°27'0 0.0
2017-Jun-21 11:27N 59°01' E 011°27'0 0.0
2017-Jun-21 11:00N 59°01' E 011°27'0 0.0
2017-Jun-21 10:27N 59°01' E 011°27'0 0.0
2017-Jun-21 08:21N 59°01' E 011°27'0 0.0
2017-Jun-21 06:28N 59°01' E 011°27'0 0.0
2017-Jun-21 05:13N 59°01' E 011°27'0 0.0
2017-Jun-21 04:55N 59°01' E 011°27'0 0.0
2017-Jun-21 04:25N 59°01' E 011°27'0 0.0
2017-Jun-21 03:49N 59°01' E 011°27'0 0.0
2017-Jun-21 03:19N 59°01' E 011°27'0 0.0
2017-Jun-21 02:43N 59°01' E 011°27'0 0.0
2017-Jun-21 02:25N 59°01' E 011°27'0 0.0
2017-Jun-21 01:49N 59°01' E 011°27'0 0.0
2017-Jun-21 01:02N 59°01' E 011°27'0 0.0
2017-Jun-21 00:56N 59°01' E 011°27'0 0.0
2017-Jun-21 00:26N 59°01' E 011°27'0 0.0
2017-Jun-20 23:44N 59°01' E 011°27'0 0.0
2017-Jun-20 23:14N 59°01' E 011°27'0 0.0
2017-Jun-20 22:56N 59°01' E 011°27'0 0.0
2017-Jun-20 22:26N 59°01' E 011°27'0 0.0
2017-Jun-20 21:53N 59°01' E 011°27'0 0.1
2017-Jun-20 21:20N 59°01' E 011°26'3 9.0
2017-Jun-20 20:58N 59°04' E 011°24'4 7.9
2017-Jun-20 20:29N 59°06' E 011°17'4 9.3
2017-Jun-20 20:00N 59°04' E 011°10'5 9.3
2017-Jun-20 19:30N 58°60' E 011°05'4 8.0
2017-Jun-20 19:00N 58°60' E 010°58'4 7.4
2017-Jun-20 18:30N 59°01' E 010°51'3 5.4
2017-Jun-20 18:01N 59°02' E 010°46'3 5.9
2017-Jun-20 17:31N 59°01' E 010°40'3 6.2
2017-Jun-20 17:00N 59°01' E 010°35'3 6.0
2017-Jun-20 16:30N 58°59' E 010°29'3 5.8
2017-Jun-20 16:00N 58°58' E 010°24'3 6.3
2017-Jun-20 15:31N 58°58' E 010°18'5 9.3
2017-Jun-20 15:00N 58°57' E 010°09'9 9.1
2017-Jun-20 14:00N 58°56' E 009°51'4 7.9
2017-Jun-20 13:30N 58°59' E 009°47'4 8.7
2017-Jun-20 13:01N 59°03' E 009°42'6 1.4
2017-Jun-20 08:44N 59°07' E 009°34'0 0.0
2017-Jun-19 12:33N 59°07' E 009°34'0 0.0
2017-Jun-19 12:30N 59°07' E 009°34'0 0.0
2017-Jun-19 12:00N 59°07' E 009°34'0 0.0
2017-Jun-19 11:28N 59°07' E 009°34'0 0.0
2017-Jun-19 10:58N 59°07' E 009°34'0 0.7
2017-Jun-19 10:30N 59°07' E 009°35'5 9.3
2017-Jun-19 10:00N 59°03' E 009°40'4 8.8
2017-Jun-19 09:30N 59°00' E 009°47'5 9.2
2017-Jun-19 09:00N 58°56' E 009°47'5 9.6
2017-Jun-19 08:30N 58°51' E 009°46'4 8.5
2017-Jun-19 08:01N 58°47' E 009°44'4 7.7
2017-Jun-19 07:30N 58°43' E 009°44'5 9.1
2017-Jun-19 07:00N 58°39' E 009°46'7 8.6
2017-Jun-19 06:13N 58°32' E 009°45'10 8.6
2017-Jun-19 05:04N 58°24' E 009°35'12 9.3
2017-Jun-19 03:47N 58°15' E 009°20'3 9.0
2017-Jun-19 03:27N 58°12' E 009°17'4 9.1
2017-Jun-19 03:00N 58°09' E 009°12'4 9.0
2017-Jun-19 02:30N 58°06' E 009°06'5 8.9
2017-Jun-19 01:58N 58°02' E 009°01'4 8.8
2017-Jun-19 01:29N 57°59' E 008°56'4 9.0
2017-Jun-19 01:00N 57°56' E 008°49'6 9.1
2017-Jun-19 00:24N 57°54' E 008°39'4 9.2
2017-Jun-19 00:00N 57°52' E 008°33'5 9.2
2017-Jun-18 23:30N 57°50' E 008°26'5 9.3
2017-Jun-18 23:00N 57°48' E 008°18'5 9.2
2017-Jun-18 22:30N 57°46' E 008°10'4 9.1
2017-Jun-18 22:00N 57°44' E 008°02'17 9.0
2017-Jun-18 20:07N 57°41' E 007°31'1 9.0
2017-Jun-18 20:00N 57°42' E 007°29'5 9.1
2017-Jun-18 19:30N 57°42' E 007°21'5 9.0
2017-Jun-18 19:00N 57°42' E 007°12'5 8.7
2017-Jun-18 18:24N 57°42' E 007°02'4 8.7
2017-Jun-18 18:00N 57°42' E 006°56'5 9.6
2017-Jun-18 17:29N 57°43' E 006°47'5 9.4
2017-Jun-18 16:59N 57°43' E 006°38'4 8.5
2017-Jun-18 16:30N 57°44' E 006°30'4 8.4
2017-Jun-18 15:59N 57°47' E 006°25'4 8.5
2017-Jun-18 15:29N 57°50' E 006°19'4 8.9
2017-Jun-18 15:00N 57°53' E 006°12'9 9.0
2017-Jun-18 14:00N 57°58' E 005°60'38 9.2
2017-Jun-18 09:53N 58°25' E 005°09'3 8.8
2017-Jun-18 09:30N 58°28' E 005°06'4 8.7
2017-Jun-18 09:00N 58°32' E 005°03'4 8.8
2017-Jun-18 08:31N 58°36' E 004°60'5 8.9
2017-Jun-18 08:00N 58°40' E 004°56'5 9.3
2017-Jun-18 07:30N 58°44' E 004°53'5 9.4
2017-Jun-18 07:00N 58°49' E 004°49'5 9.3
2017-Jun-18 06:31N 58°53' E 004°46'5 9.6
2017-Jun-18 06:00N 58°58' E 004°42'  
2017-Jun-15 16:22N 66°24' E 011°17'6 7.9
2017-Jun-15 15:34N 66°28' E 011°28'1 7.8
2017-Jun-15 15:24N 66°29' E 011°31'3 7.8
2017-Jun-15 15:00N 66°31' E 011°36'4 7.7
2017-Jun-15 14:29N 66°34' E 011°43'8 7.8
2017-Jun-15 13:30N 66°40' E 011°57'19 8.3
2017-Jun-15 11:16N 66°53' E 012°31'2 8.5
2017-Jun-15 11:00N 66°54' E 012°35'4 8.7
2017-Jun-15 10:30N 66°57' E 012°42'4 8.7
2017-Jun-15 10:00N 67°00' E 012°50'4 8.8
2017-Jun-15 09:30N 67°04' E 012°58'4 8.7
2017-Jun-15 09:00N 67°07' E 013°06'4 8.3
2017-Jun-15 08:30N 67°09' E 013°15'4 8.4
2017-Jun-15 08:00N 67°11' E 013°24'4 8.5
2017-Jun-15 07:30N 67°13' E 013°34'4 8.5
2017-Jun-15 07:01N 67°13' E 013°45'4 8.4
2017-Jun-15 06:31N 67°11' E 013°54'4 8.3
2017-Jun-15 06:00N 67°12' E 014°05'4 7.6
2017-Jun-15 05:30N 67°14' E 014°14'5 9.5
2017-Jun-15 05:00N 67°15' E 014°26'4 8.9
2017-Jun-15 04:30N 67°14' E 014°37'3 6.1
2017-Jun-15 04:01N 67°14' E 014°45'4 8.6
2017-Jun-15 03:30N 67°16' E 014°55'510.6
2017-Jun-15 03:00N 67°15' E 015°09'5 9.7
2017-Jun-15 02:30N 67°14' E 015°21'2 3.7
2017-Jun-15 01:59N 67°15' E 015°25'0 0.0
2017-Jun-15 01:29N 67°15' E 015°25'0 0.0
2017-Jun-15 00:59N 67°15' E 015°25'0 0.0
2017-Jun-15 00:29N 67°15' E 015°25'0 0.0
2017-Jun-14 23:59N 67°15' E 015°25'0 0.0
2017-Jun-14 23:30N 67°15' E 015°25'0 0.0
2017-Jun-14 23:00N 67°15' E 015°25'0 0.0
2017-Jun-14 22:30N 67°15' E 015°25'0 0.0
2017-Jun-14 22:00N 67°15' E 015°25'0 0.0
2017-Jun-14 21:30N 67°15' E 015°25'0 0.0
2017-Jun-14 21:00N 67°15' E 015°25'0 0.0
2017-Jun-14 20:27N 67°15' E 015°25'0 0.0
2017-Jun-14 20:00N 67°15' E 015°25'0 0.0
2017-Jun-14 19:30N 67°15' E 015°25'0 0.0
2017-Jun-14 18:57N 67°15' E 015°25'0 0.0
2017-Jun-14 18:25N 67°15' E 015°25'0 0.0
2017-Jun-14 17:58N 67°15' E 015°25'0 0.0
2017-Jun-14 17:25N 67°15' E 015°25'0 0.0
2017-Jun-14 16:58N 67°15' E 015°25'0 0.0
2017-Jun-14 16:28N 67°15' E 015°25'0 0.0
2017-Jun-14 15:55N 67°15' E 015°25'0 0.0
2017-Jun-14 15:28N 67°15' E 015°25'0 0.0
2017-Jun-14 14:55N 67°15' E 015°25'0 0.0
2017-Jun-14 13:58N 67°15' E 015°25'0 0.0
2017-Jun-14 13:29N 67°15' E 015°25'0 0.0
2017-Jun-14 12:59N 67°15' E 015°25'0 0.0
2017-Jun-14 12:29N 67°15' E 015°25'0 0.0
2017-Jun-14 11:59N 67°15' E 015°25'0 0.0
2017-Jun-14 11:29N 67°15' E 015°25'0 0.0
2017-Jun-14 10:59N 67°15' E 015°25'0 0.0
2017-Jun-14 10:29N 67°15' E 015°25'0 0.0
2017-Jun-14 09:59N 67°15' E 015°25'0 0.0
2017-Jun-14 09:29N 67°15' E 015°25'0 0.0
2017-Jun-14 08:59N 67°15' E 015°25'0 0.0
2017-Jun-14 08:24N 67°15' E 015°25'0 0.0
2017-Jun-14 08:00N 67°15' E 015°25'0 0.0
2017-Jun-14 07:30N 67°15' E 015°25'0 0.0
2017-Jun-14 07:00N 67°15' E 015°25'0 0.0
2017-Jun-14 06:30N 67°15' E 015°25'0 0.0
2017-Jun-14 05:57N 67°15' E 015°25'0 0.0
2017-Jun-14 05:30N 67°15' E 015°25'0 0.0
2017-Jun-14 05:00N 67°15' E 015°25'0 0.0
2017-Jun-14 04:30N 67°15' E 015°25'0 0.0
2017-Jun-14 04:00N 67°15' E 015°25'0 0.0
2017-Jun-14 03:28N 67°15' E 015°25'0 0.0
2017-Jun-14 02:58N 67°15' E 015°25'0 0.0
2017-Jun-14 02:28N 67°15' E 015°25'0 0.0
2017-Jun-14 01:58N 67°15' E 015°25'0 0.0
2017-Jun-14 01:28N 67°15' E 015°25'0 0.0
2017-Jun-14 00:58N 67°15' E 015°25'0 0.0
2017-Jun-14 00:28N 67°15' E 015°25'0 0.0
2017-Jun-13 23:58N 67°15' E 015°25'0 0.0
2017-Jun-13 23:28N 67°15' E 015°25'0 0.0
2017-Jun-13 22:58N 67°15' E 015°25'0 0.0
2017-Jun-13 22:29N 67°15' E 015°25'0 0.0
2017-Jun-13 21:59N 67°15' E 015°25'0 0.0
2017-Jun-13 21:29N 67°15' E 015°25'0 0.0
2017-Jun-13 20:59N 67°15' E 015°25'0 0.0
2017-Jun-13 20:23N 67°15' E 015°25'0 0.0
2017-Jun-13 19:59N 67°15' E 015°25'0 0.0
2017-Jun-13 19:29N 67°15' E 015°25'0 0.0
2017-Jun-13 18:59N 67°15' E 015°25'0 0.0
2017-Jun-13 18:29N 67°15' E 015°25'0 0.0
2017-Jun-13 17:59N 67°15' E 015°25'0 0.1
2017-Jun-13 17:30N 67°15' E 015°25'1 1.7
2017-Jun-13 17:00N 67°15' E 015°23'5 9.5
2017-Jun-13 16:30N 67°14' E 015°11'612.8
2017-Jun-13 16:01N 67°16' E 014°56'611.8
2017-Jun-13 15:30N 67°13' E 014°42'4 8.5
2017-Jun-13 15:00N 67°15' E 014°32'3 6.0
2017-Jun-13 14:31N 67°14' E 014°25'7 7.0
2017-Jun-13 13:30N 67°11' E 014°08'4 7.7
2017-Jun-13 13:01N 67°08' E 014°02'4 9.0
2017-Jun-13 12:30N 67°05' E 013°55'5 9.5
2017-Jun-13 12:01N 67°02' E 013°46'510.1
2017-Jun-13 11:30N 66°59' E 013°35'5 9.0
2017-Jun-13 11:00N 66°55' E 013°30'5 9.9
2017-Jun-13 10:30N 66°50' E 013°34'5 9.8
2017-Jun-13 09:59N 66°49' E 013°46'  
Track history (hours):
 
Tides and Currents Weather Stations Pressure Air Temp Water Temp Dewpoint Dewpoint Depression Visibility Wind Speed Wind Dir Waves Ship Positions

Paganini

Last reported at 2017-Jun-22 12:50 UTC. Time now 2017-Jun-23 11:48 UTC.
Position N 56°50' E 010°56'.

Length 90 m; draft 5.8 m.

Type: Cargo ship. MMSI: 305040000.

Date/timePositionNaut miles runAvg speedWind from/ knotsBaromVisibWave heightAir tempDewpointWater temp
2017-Jun-22 12:50N 56°50' E 010°56'29 8.3
2017-Jun-22 09:22N 57°18' E 010°42'3 8.1
2017-Jun-22 08:56N 57°21' E 010°42'4 8.4
2017-Jun-22 08:30N 57°25' E 010°43'4 8.1
2017-Jun-22 07:58N 57°29' E 010°43'4 7.8
2017-Jun-22 07:30N 57°33' E 010°42'4 7.8
2017-Jun-22 07:00N 57°37' E 010°42'4 7.8
2017-Jun-22 06:30N 57°41' E 010°41'2 3.8
2017-Jun-22 06:00N 57°43' E 010°41'0 0.0
2017-Jun-22 05:30N 57°43' E 010°41'0 0.0
2017-Jun-22 04:57N 57°43' E 010°41'2 4.4
2017-Jun-22 04:30N 57°44' E 010°44'4 8.1
2017-Jun-22 04:00N 57°48' E 010°45'2 5.0
2017-Jun-22 03:30N 57°50' E 010°45'3 6.4
2017-Jun-22 03:00N 57°53' E 010°45'3 6.8
2017-Jun-22 02:30N 57°57' E 010°44'3 7.0
2017-Jun-22 02:00N 58°00' E 010°44'4 7.3
2017-Jun-22 01:30N 58°04' E 010°43'3 6.6
2017-Jun-22 01:00N 58°07' E 010°43'3 6.8
2017-Jun-22 00:30N 58°10' E 010°44'3 6.9
2017-Jun-22 00:00N 58°14' E 010°44'3 6.9
2017-Jun-21 23:30N 58°17' E 010°43'4 7.1
2017-Jun-21 23:01N 58°21' E 010°43'3 6.8
2017-Jun-21 22:30N 58°24' E 010°43'3 6.9
2017-Jun-21 22:00N 58°28' E 010°42'4 7.0
2017-Jun-21 21:30N 58°31' E 010°42'4 7.2
2017-Jun-21 21:00N 58°35' E 010°42'4 7.3
2017-Jun-21 20:30N 58°39' E 010°41'4 7.2
2017-Jun-21 20:00N 58°42' E 010°41'3 6.8
2017-Jun-21 19:30N 58°45' E 010°41'4 7.1
2017-Jun-21 19:00N 58°49' E 010°41'4 7.5
2017-Jun-21 18:30N 58°53' E 010°40'4 8.4
2017-Jun-21 18:00N 58°57' E 010°41'4 8.5
2017-Jun-21 17:30N 59°01' E 010°44'4 7.2
2017-Jun-21 17:00N 59°01' E 010°51'4 8.3
2017-Jun-21 16:30N 58°60' E 010°59'4 8.0
2017-Jun-21 16:00N 59°00' E 011°06'510.2
2017-Jun-21 15:30N 59°05' E 011°11'5 9.6
2017-Jun-21 15:00N 59°07' E 011°20'5 9.6
2017-Jun-21 14:29N 59°03' E 011°25'2 1.3
2017-Jun-21 13:14N 59°01' E 011°27'0 0.0
2017-Jun-21 12:56N 59°01' E 011°27'0 0.0
2017-Jun-21 11:27N 59°01' E 011°27'0 0.0
2017-Jun-21 11:00N 59°01' E 011°27'0 0.0
2017-Jun-21 10:27N 59°01' E 011°27'0 0.0
2017-Jun-21 08:21N 59°01' E 011°27'0 0.0
2017-Jun-21 06:28N 59°01' E 011°27'0 0.0
2017-Jun-21 05:13N 59°01' E 011°27'0 0.0
2017-Jun-21 04:55N 59°01' E 011°27'0 0.0
2017-Jun-21 04:25N 59°01' E 011°27'0 0.0
2017-Jun-21 03:49N 59°01' E 011°27'0 0.0
2017-Jun-21 03:19N 59°01' E 011°27'0 0.0
2017-Jun-21 02:43N 59°01' E 011°27'0 0.0
2017-Jun-21 02:25N 59°01' E 011°27'0 0.0
2017-Jun-21 01:49N 59°01' E 011°27'0 0.0
2017-Jun-21 01:02N 59°01' E 011°27'0 0.0
2017-Jun-21 00:56N 59°01' E 011°27'0 0.0
2017-Jun-21 00:26N 59°01' E 011°27'0 0.0
2017-Jun-20 23:44N 59°01' E 011°27'0 0.0
2017-Jun-20 23:14N 59°01' E 011°27'0 0.0
2017-Jun-20 22:56N 59°01' E 011°27'0 0.0
2017-Jun-20 22:26N 59°01' E 011°27'0 0.0
2017-Jun-20 21:53N 59°01' E 011°27'0 0.1
2017-Jun-20 21:20N 59°01' E 011°26'3 9.0
2017-Jun-20 20:58N 59°04' E 011°24'4 7.9
2017-Jun-20 20:29N 59°06' E 011°17'4 9.3
2017-Jun-20 20:00N 59°04' E 011°10'5 9.3
2017-Jun-20 19:30N 58°60' E 011°05'4 8.0
2017-Jun-20 19:00N 58°60' E 010°58'4 7.4
2017-Jun-20 18:30N 59°01' E 010°51'3 5.4
2017-Jun-20 18:01N 59°02' E 010°46'3 5.9
2017-Jun-20 17:31N 59°01' E 010°40'3 6.2
2017-Jun-20 17:00N 59°01' E 010°35'3 6.0
2017-Jun-20 16:30N 58°59' E 010°29'3 5.8
2017-Jun-20 16:00N 58°58' E 010°24'3 6.3
2017-Jun-20 15:31N 58°58' E 010°18'5 9.3
2017-Jun-20 15:00N 58°57' E 010°09'9 9.1
2017-Jun-20 14:00N 58°56' E 009°51'4 7.9
2017-Jun-20 13:30N 58°59' E 009°47'4 8.7
2017-Jun-20 13:01N 59°03' E 009°42'6 1.4
2017-Jun-20 08:44N 59°07' E 009°34'0 0.0
2017-Jun-19 12:33N 59°07' E 009°34'0 0.0
2017-Jun-19 12:30N 59°07' E 009°34'0 0.0
2017-Jun-19 12:00N 59°07' E 009°34'0 0.0
2017-Jun-19 11:28N 59°07' E 009°34'0 0.0
2017-Jun-19 10:58N 59°07' E 009°34'0 0.7
2017-Jun-19 10:30N 59°07' E 009°35'5 9.3
2017-Jun-19 10:00N 59°03' E 009°40'4 8.8
2017-Jun-19 09:30N 59°00' E 009°47'5 9.2
2017-Jun-19 09:00N 58°56' E 009°47'5 9.6
2017-Jun-19 08:30N 58°51' E 009°46'4 8.5
2017-Jun-19 08:01N 58°47' E 009°44'4 7.7
2017-Jun-19 07:30N 58°43' E 009°44'5 9.1
2017-Jun-19 07:00N 58°39' E 009°46'7 8.6
2017-Jun-19 06:13N 58°32' E 009°45'10 8.6
2017-Jun-19 05:04N 58°24' E 009°35'12 9.3
2017-Jun-19 03:47N 58°15' E 009°20'3 9.0
2017-Jun-19 03:27N 58°12' E 009°17'4 9.1
2017-Jun-19 03:00N 58°09' E 009°12'4 9.0
2017-Jun-19 02:30N 58°06' E 009°06'5 8.9
2017-Jun-19 01:58N 58°02' E 009°01'4 8.8
2017-Jun-19 01:29N 57°59' E 008°56'4 9.0
2017-Jun-19 01:00N 57°56' E 008°49'6 9.1
2017-Jun-19 00:24N 57°54' E 008°39'4 9.2
2017-Jun-19 00:00N 57°52' E 008°33'5 9.2
2017-Jun-18 23:30N 57°50' E 008°26'5 9.3
2017-Jun-18 23:00N 57°48' E 008°18'5 9.2
2017-Jun-18 22:30N 57°46' E 008°10'4 9.1
2017-Jun-18 22:00N 57°44' E 008°02'17 9.0
2017-Jun-18 20:07N 57°41' E 007°31'1 9.0
2017-Jun-18 20:00N 57°42' E 007°29'5 9.1
2017-Jun-18 19:30N 57°42' E 007°21'5 9.0
2017-Jun-18 19:00N 57°42' E 007°12'5 8.7
2017-Jun-18 18:24N 57°42' E 007°02'4 8.7
2017-Jun-18 18:00N 57°42' E 006°56'5 9.6
2017-Jun-18 17:29N 57°43' E 006°47'5 9.4
2017-Jun-18 16:59N 57°43' E 006°38'4 8.5
2017-Jun-18 16:30N 57°44' E 006°30'4 8.4
2017-Jun-18 15:59N 57°47' E 006°25'4 8.5
2017-Jun-18 15:29N 57°50' E 006°19'4 8.9
2017-Jun-18 15:00N 57°53' E 006°12'9 9.0
2017-Jun-18 14:00N 57°58' E 005°60'38 9.2
2017-Jun-18 09:53N 58°25' E 005°09'3 8.8
2017-Jun-18 09:30N 58°28' E 005°06'4 8.7
2017-Jun-18 09:00N 58°32' E 005°03'4 8.8
2017-Jun-18 08:31N 58°36' E 004°60'5 8.9
2017-Jun-18 08:00N 58°40' E 004°56'5 9.3
2017-Jun-18 07:30N 58°44' E 004°53'5 9.4
2017-Jun-18 07:00N 58°49' E 004°49'5 9.3
2017-Jun-18 06:31N 58°53' E 004°46'5 9.6
2017-Jun-18 06:00N 58°58' E 004°42'  
2017-Jun-15 16:22N 66°24' E 011°17'6 7.9
2017-Jun-15 15:34N 66°28' E 011°28'1 7.8
2017-Jun-15 15:24N 66°29' E 011°31'3 7.8
2017-Jun-15 15:00N 66°31' E 011°36'4 7.7
2017-Jun-15 14:29N 66°34' E 011°43'8 7.8
2017-Jun-15 13:30N 66°40' E 011°57'19 8.3
2017-Jun-15 11:16N 66°53' E 012°31'2 8.5
2017-Jun-15 11:00N 66°54' E 012°35'4 8.7
2017-Jun-15 10:30N 66°57' E 012°42'4 8.7
2017-Jun-15 10:00N 67°00' E 012°50'4 8.8
2017-Jun-15 09:30N 67°04' E 012°58'4 8.7
2017-Jun-15 09:00N 67°07' E 013°06'4 8.3
2017-Jun-15 08:30N 67°09' E 013°15'4 8.4
2017-Jun-15 08:00N 67°11' E 013°24'4 8.5
2017-Jun-15 07:30N 67°13' E 013°34'4 8.5
2017-Jun-15 07:01N 67°13' E 013°45'4 8.4
2017-Jun-15 06:31N 67°11' E 013°54'4 8.3
2017-Jun-15 06:00N 67°12' E 014°05'4 7.6
2017-Jun-15 05:30N 67°14' E 014°14'5 9.5
2017-Jun-15 05:00N 67°15' E 014°26'4 8.9
2017-Jun-15 04:30N 67°14' E 014°37'3 6.1
2017-Jun-15 04:01N 67°14' E 014°45'4 8.6
2017-Jun-15 03:30N 67°16' E 014°55'510.6
2017-Jun-15 03:00N 67°15' E 015°09'5 9.7
2017-Jun-15 02:30N 67°14' E 015°21'2 3.7
2017-Jun-15 01:59N 67°15' E 015°25'0 0.0
2017-Jun-15 01:29N 67°15' E 015°25'0 0.0
2017-Jun-15 00:59N 67°15' E 015°25'0 0.0
2017-Jun-15 00:29N 67°15' E 015°25'0 0.0
2017-Jun-14 23:59N 67°15' E 015°25'0 0.0
2017-Jun-14 23:30N 67°15' E 015°25'0 0.0
2017-Jun-14 23:00N 67°15' E 015°25'0 0.0
2017-Jun-14 22:30N 67°15' E 015°25'0 0.0
2017-Jun-14 22:00N 67°15' E 015°25'0 0.0
2017-Jun-14 21:30N 67°15' E 015°25'0 0.0
2017-Jun-14 21:00N 67°15' E 015°25'0 0.0
2017-Jun-14 20:27N 67°15' E 015°25'0 0.0
2017-Jun-14 20:00N 67°15' E 015°25'0 0.0
2017-Jun-14 19:30N 67°15' E 015°25'0 0.0
2017-Jun-14 18:57N 67°15' E 015°25'0 0.0
2017-Jun-14 18:25N 67°15' E 015°25'0 0.0
2017-Jun-14 17:58N 67°15' E 015°25'0 0.0
2017-Jun-14 17:25N 67°15' E 015°25'0 0.0
2017-Jun-14 16:58N 67°15' E 015°25'0 0.0
2017-Jun-14 16:28N 67°15' E 015°25'0 0.0
2017-Jun-14 15:55N 67°15' E 015°25'0 0.0
2017-Jun-14 15:28N 67°15' E 015°25'0 0.0
2017-Jun-14 14:55N 67°15' E 015°25'0 0.0
2017-Jun-14 13:58N 67°15' E 015°25'0 0.0
2017-Jun-14 13:29N 67°15' E 015°25'0 0.0
2017-Jun-14 12:59N 67°15' E 015°25'0 0.0
2017-Jun-14 12:29N 67°15' E 015°25'0 0.0
2017-Jun-14 11:59N 67°15' E 015°25'0 0.0
2017-Jun-14 11:29N 67°15' E 015°25'0 0.0
2017-Jun-14 10:59N 67°15' E 015°25'0 0.0
2017-Jun-14 10:29N 67°15' E 015°25'0 0.0
2017-Jun-14 09:59N 67°15' E 015°25'0 0.0
2017-Jun-14 09:29N 67°15' E 015°25'0 0.0
2017-Jun-14 08:59N 67°15' E 015°25'0 0.0
2017-Jun-14 08:24N 67°15' E 015°25'0 0.0
2017-Jun-14 08:00N 67°15' E 015°25'0 0.0
2017-Jun-14 07:30N 67°15' E 015°25'0 0.0
2017-Jun-14 07:00N 67°15' E 015°25'0 0.0
2017-Jun-14 06:30N 67°15' E 015°25'0 0.0
2017-Jun-14 05:57N 67°15' E 015°25'0 0.0
2017-Jun-14 05:30N 67°15' E 015°25'0 0.0
2017-Jun-14 05:00N 67°15' E 015°25'0 0.0
2017-Jun-14 04:30N 67°15' E 015°25'0 0.0
2017-Jun-14 04:00N 67°15' E 015°25'0 0.0
2017-Jun-14 03:28N 67°15' E 015°25'0 0.0
2017-Jun-14 02:58N 67°15' E 015°25'0 0.0
2017-Jun-14 02:28N 67°15' E 015°25'0 0.0
2017-Jun-14 01:58N 67°15' E 015°25'0 0.0
2017-Jun-14 01:28N 67°15' E 015°25'0 0.0
2017-Jun-14 00:58N 67°15' E 015°25'0 0.0
2017-Jun-14 00:28N 67°15' E 015°25'0 0.0
2017-Jun-13 23:58N 67°15' E 015°25'0 0.0
2017-Jun-13 23:28N 67°15' E 015°25'0 0.0
2017-Jun-13 22:58N 67°15' E 015°25'0 0.0
2017-Jun-13 22:29N 67°15' E 015°25'0 0.0
2017-Jun-13 21:59N 67°15' E 015°25'0 0.0
2017-Jun-13 21:29N 67°15' E 015°25'0 0.0
2017-Jun-13 20:59N 67°15' E 015°25'0 0.0
2017-Jun-13 20:23N 67°15' E 015°25'0 0.0
2017-Jun-13 19:59N 67°15' E 015°25'0 0.0
2017-Jun-13 19:29N 67°15' E 015°25'0 0.0
2017-Jun-13 18:59N 67°15' E 015°25'0 0.0
2017-Jun-13 18:29N 67°15' E 015°25'0 0.0
2017-Jun-13 17:59N 67°15' E 015°25'0 0.1
2017-Jun-13 17:30N 67°15' E 015°25'1 1.7
2017-Jun-13 17:00N 67°15' E 015°23'5 9.5
2017-Jun-13 16:30N 67°14' E 015°11'612.8
2017-Jun-13 16:01N 67°16' E 014°56'611.8
2017-Jun-13 15:30N 67°13' E 014°42'4 8.5
2017-Jun-13 15:00N 67°15' E 014°32'3 6.0
2017-Jun-13 14:31N 67°14' E 014°25'7 7.0
2017-Jun-13 13:30N 67°11' E 014°08'4 7.7
2017-Jun-13 13:01N 67°08' E 014°02'4 9.0
2017-Jun-13 12:30N 67°05' E 013°55'5 9.5
2017-Jun-13 12:01N 67°02' E 013°46'510.1
2017-Jun-13 11:30N 66°59' E 013°35'5 9.0
2017-Jun-13 11:00N 66°55' E 013°30'5 9.9
2017-Jun-13 10:30N 66°50' E 013°34'5 9.8
2017-Jun-13 09:59N 66°49' E 013°46'  

Dump ship's entire track history